Airfield :
LOGIN :

Register | Disclaimer

   EN    FR    IT 

 










Legend :    VFR   Marginal VFR   IFR   Intensive IFR   Very Intensive IFR
Visi :
Ceiling :
>= 8 km
>= 3000ft
5 to 8 km
1000 to 3000 ft
1500m to 5 km
500 to 1000 ft
800 to 1500m
200 to 500 ft
< 800m
< 200 ft
Symbols :   Thunderstorms  Fog  Heavy snow  Heavy precipitations  Wind > 20 kt
SIGMETs :     Misc.  Thunderstorms  Icing  Turbulence  Mountain Waves  Volcanic Ashes






- Airport Elevation : 11 ft
- IATA code : SXL


EISG - Sligo

CURRENT METAR :
  • 161130Z 22011KT 9000 FEW015 SCT044 06/03 Q0993

EXPIRED METARs :
  • 161100Z 23014KT 9999 FEW016 SCT039 06/03 Q0993
  • 161030Z 21007KT 170V230 9999 FEW016 SCT038 05/03 Q0993
  • 161000Z 22011KT 9999 FEW020 SCT047 BKN055 06/03 Q0992
  • 160930Z 22011KT 170V240 9999 FEW024 BKN044 06/03 Q0992

TAF TAF EISG
Valid from the 16 at 12:00 until the 16 at 21:00 UTC


161100Z 1612/1621 22011KT 9999 FEW015 BKN027
TEMPO 1612/1620 5000 -SHRA SCT012 SCT018CB
PROB30
TEMPO 1612/1619 4000 SHRAGS BKN010



MET'MAP, your aeronautical weather chart ! - Copyright ORBIFLY December 2007 - Disclaimer

ORBIFLY MET'MAP TEAM :

Programming & Development : Alexandra Zaïnal
Concept & original design : Baudouin d'Aumeries
Assistance for programming : Marc-Olivier Méhu
Technical & hardware support : Manuel Goepfert

Contact : metmap@orbifly.com




SOURCES & CREDITS :

   NOAA